Time;durP1;ratioP1;P1;durP2;ratioP2;P2;SDS_P1;SDS_P2;PMS_P1;PMS_P2;Temp;Humidity;BMP_temperature;BMP_pressure;BME280_temperature;BME280_humidity;BME280_pressure;Samples;Min_cycle;Max_cycle;Signal;HPM_P1;HPM_P2
2022/05/19 00:00:00;;;;;;;23.60;18.13;;;;;;;24.56;49.07;101626.94;5134060;27;20129;-64
2022/05/19 00:02:26;;;;;;;25.60;17.70;;;;;;;24.55;48.90;101629.88;5135135;27;20047;-62
2022/05/19 00:04:53;;;;;;;25.05;17.17;;;;;;;24.52;49.21;101630.19;5134534;27;20530;-61
2022/05/19 00:07:19;;;;;;;24.20;18.48;;;;;;;24.48;49.10;101621.47;5134600;27;20042;-63
2022/05/19 00:09:46;;;;;;;22.23;17.85;;;;;;;24.45;49.47;101620.97;5134968;27;20046;-62
2022/05/19 00:12:18;;;;;;;25.58;17.90;;;;;;;24.41;49.62;101612.25;5140709;27;20481;-62
2022/05/19 00:14:45;;;;;;;21.65;17.20;;;;;;;24.39;49.50;101609.69;5134946;27;20121;-61
2022/05/19 00:17:12;;;;;;;20.52;16.38;;;;;;;24.37;49.33;101613.66;5134483;27;20392;-63
2022/05/19 00:19:39;;;;;;;22.70;17.95;;;;;;;24.35;49.44;101613.81;5134543;27;20038;-62
2022/05/19 00:22:06;;;;;;;22.42;17.20;;;;;;;24.35;49.34;101615.72;5134535;27;20047;-62
2022/05/19 00:24:32;;;;;;;23.23;17.98;;;;;;;24.32;49.42;101611.44;5134154;27;20035;-63
2022/05/19 00:26:59;;;;;;;23.80;17.33;;;;;;;24.30;49.60;101609.91;5134533;27;20492;-63
2022/05/19 00:29:26;;;;;;;21.23;16.92;;;;;;;24.28;49.65;101606.50;5134270;27;20043;-63
2022/05/19 00:31:53;;;;;;;23.65;17.70;;;;;;;24.26;49.95;101614.03;5134462;27;20043;-62
2022/05/19 00:34:19;;;;;;;24.77;17.88;;;;;;;24.26;49.46;101608.53;5134162;27;20045;-62
2022/05/19 00:36:47;;;;;;;23.80;18.27;;;;;;;24.25;49.68;101604.06;5116576;27;20374;-63
2022/05/19 00:39:14;;;;;;;23.35;17.20;;;;;;;24.25;49.97;101599.44;5134055;27;20050;-62
2022/05/19 00:41:45;;;;;;;24.27;18.65;;;;;;;24.24;49.89;101597.72;5134469;28;20039;-63
2022/05/19 00:44:12;;;;;;;26.88;18.85;;;;;;;24.23;50.06;101596.03;5134089;28;20039;-62
2022/05/19 00:46:56;;;;;;;21.73;18.02;;;;;;;24.21;50.24;101589.00;5134248;28;20031;-63
2022/05/19 00:49:38;;;;;;;24.73;18.38;;;;;;;24.20;49.89;101587.28;5134391;28;20055;-62
2022/05/19 00:52:11;;;;;;;23.30;18.20;;;;;;;24.20;50.24;101581.81;5134267;28;20118;-63
2022/05/19 00:54:48;;;;;;;23.90;18.85;;;;;;;24.20;49.98;101581.81;5133985;28;20493;-62
2022/05/19 00:57:21;;;;;;;22.88;20.00;;;;;;;24.16;50.28;101585.94;5133832;28;20086;-63
2022/05/19 01:00:01;;;;;;;27.55;20.05;;;;;;;24.12;50.37;101581.84;5116128;28;20065;-63
2022/05/19 01:02:33;;;;;;;25.00;19.38;;;;;;;24.07;50.18;101572.25;5134159;28;20130;-63
2022/05/19 01:05:12;;;;;;;25.38;19.67;;;;;;;24.03;50.63;101565.44;5134228;28;20043;-63
2022/05/19 01:07:51;;;;;;;22.85;19.83;;;;;;;23.97;50.32;101568.88;5134017;28;20369;-63
2022/05/19 01:10:20;;;;;;;28.40;20.05;;;;;;;23.95;50.44;101562.72;5134528;28;20039;-63
2022/05/19 01:12:50;;;;;;;23.60;19.98;;;;;;;23.90;50.61;101570.63;5137807;27;20043;-64
2022/05/19 01:15:17;;;;;;;24.48;20.00;;;;;;;23.84;50.68;101568.59;5138466;27;20046;-64
2022/05/19 01:17:44;;;;;;;26.38;20.85;;;;;;;23.80;50.80;101564.50;5138162;27;20035;-63
2022/05/19 01:20:19;;;;;;;23.75;19.58;;;;;;;23.77;51.17;101564.84;5138362;27;20047;-62
2022/05/19 01:22:54;;;;;;;29.38;20.88;;;;;;;23.75;51.19;101558.66;5138331;27;20507;-62
2022/05/19 01:25:46;;;;;;;26.42;20.92;;;;;;;23.70;51.26;101558.34;5137762;27;20047;-63
2022/05/19 01:28:13;;;;;;;28.33;20.27;;;;;;;23.68;51.29;101557.66;5137890;27;20046;-63
2022/05/19 01:30:40;;;;;;;25.65;20.38;;;;;;;23.66;51.36;101555.09;5137565;27;20058;-63
2022/05/19 01:33:07;;;;;;;30.33;22.35;;;;;;;23.67;51.37;101550.47;5137387;27;20043;-63
2022/05/19 01:35:33;;;;;;;26.35;21.58;;;;;;;23.65;51.36;101542.44;5137871;27;20044;-63
2022/05/19 01:38:02;;;;;;;27.23;21.27;;;;;;;23.62;51.68;101537.31;5115592;28;20072;-64
2022/05/19 01:40:59;;;;;;;28.63;22.67;;;;;;;23.58;51.49;101533.19;5115879;28;20561;-62
2022/05/19 01:43:41;;;;;;;30.38;22.42;;;;;;;23.55;51.53;101530.81;5116838;28;20054;-63
2022/05/19 01:46:36;;;;;;;28.58;21.95;;;;;;;23.53;51.76;101529.25;5116950;28;20048;-63
2022/05/19 01:49:14;;;;;;;26.23;22.45;;;;;;;23.50;51.76;101526.88;5133131;27;20047;-62
2022/05/19 01:51:44;;;;;;;;;;;;;;;23.46;51.59;101518.13;5137986;27;20112;-62
2022/05/19 01:54:29;;;;;;;27.48;22.45;;;;;;;23.48;51.61;101529.78;5137065;27;20308;-63
2022/05/19 01:57:26;;;;;;;28.88;22.85;;;;;;;23.44;51.69;101523.78;5136789;27;20099;-63
2022/05/19 02:00:06;;;;;;;27.90;21.83;;;;;;;23.45;51.71;101525.50;5137156;27;20050;-63
2022/05/19 02:02:38;;;;;;;;;;;;;;;23.42;51.73;101525.84;5116111;28;20051;-63
2022/05/19 02:05:14;;;;;;;28.15;22.55;;;;;;;23.46;51.93;101523.63;5116302;28;19927;-63
2022/05/19 02:07:45;;;;;;;29.45;24.20;;;;;;;23.46;51.68;101521.72;5125268;27;20036;-63
2022/05/19 02:10:17;;;;;;;28.88;22.90;;;;;;;23.45;52.22;101520.03;5137175;27;20066;-63
2022/05/19 02:12:46;;;;;;;28.42;22.15;;;;;;;23.45;52.17;101517.28;5136963;27;20039;-63
2022/05/19 02:15:17;;;;;;;27.92;22.35;;;;;;;23.46;52.21;101524.47;5136991;27;20053;-63
2022/05/19 02:17:46;;;;;;;31.10;23.38;;;;;;;23.49;52.21;101515.03;5136842;27;20043;-64
2022/05/19 02:20:16;;;;;;;30.05;22.58;;;;;;;23.49;52.04;101519.66;5119551;27;20043;-64
2022/05/19 02:22:44;;;;;;;27.73;22.17;;;;;;;23.49;52.16;101516.94;5135818;27;20516;-64
2022/05/19 02:25:23;;;;;;;26.17;21.88;;;;;;;23.48;52.32;101515.22;5136332;27;20038;-63
2022/05/19 02:28:03;;;;;;;23.67;20.25;;;;;;;23.49;52.51;101519.66;5136598;27;20047;-64
2022/05/19 02:30:33;;;;;;;23.38;18.80;;;;;;;23.50;52.35;101529.59;5118167;27;20370;-64
2022/05/19 02:33:00;;;;;;;20.65;17.90;;;;;;;23.49;52.36;101519.66;5136623;27;20043;-64
2022/05/19 02:35:28;;;;;;;20.85;18.20;;;;;;;23.50;52.25;101514.00;5136594;27;20054;-64
2022/05/19 02:37:57;;;;;;;22.58;17.38;;;;;;;23.50;52.04;101518.63;5114739;28;20043;-63
2022/05/19 02:40:27;;;;;;;22.30;18.73;;;;;;;23.49;52.40;101516.94;5115841;28;20092;-64
2022/05/19 02:42:53;;;;;;;22.42;17.70;;;;;;;23.46;51.95;101516.25;5115810;28;20486;-63
2022/05/19 02:45:21;;;;;;;24.70;17.50;;;;;;;23.43;52.16;101519.34;5122758;27;20039;-64
2022/05/19 02:47:49;;;;;;;17.90;15.90;;;;;;;23.43;51.97;101513.88;5135973;27;20043;-64
2022/05/19 02:50:17;;;;;;;20.92;16.52;;;;;;;23.44;52.21;101518.31;5136058;27;20037;-64
2022/05/19 02:52:45;;;;;;;21.10;16.55;;;;;;;23.43;51.94;101513.88;5136628;27;20117;-64
2022/05/19 02:55:12;;;;;;;23.95;17.27;;;;;;;23.43;52.20;101516.59;5135818;27;20423;-64
2022/05/19 02:57:39;;;;;;;17.88;15.90;;;;;;;23.44;51.91;101522.94;5135942;27;20047;-63
2022/05/19 03:00:09;;;;;;;19.55;15.40;;;;;;;23.44;52.20;101522.94;5132097;27;20047;-63
2022/05/19 03:02:39;;;;;;;16.50;14.10;;;;;;;23.43;51.89;101530.31;5097048;28;20044;-63
2022/05/19 03:05:06;;;;;;;17.25;14.25;;;;;;;23.44;52.09;101537.50;5115168;28;20045;-63
2022/05/19 03:07:33;;;;;;;16.65;14.43;;;;;;;23.44;51.98;101531.16;5126246;27;20507;-63
2022/05/19 03:09:59;;;;;;;16.27;13.75;;;;;;;23.44;51.76;101533.91;5135680;27;20051;-63
2022/05/19 03:12:25;;;;;;;17.67;13.68;;;;;;;23.41;52.31;101537.84;5117715;27;20039;-63
2022/05/19 03:14:52;;;;;;;18.73;14.48;;;;;;;23.41;51.86;101537.84;5135362;27;20035;-63
2022/05/19 03:17:18;;;;;;;14.48;12.90;;;;;;;23.43;51.62;101540.41;5135504;27;20070;-63
2022/05/19 03:19:53;;;;;;;17.10;12.75;;;;;;;23.44;51.78;101539.38;5135575;27;20040;-62
2022/05/19 03:22:20;;;;;;;18.02;13.48;;;;;;;23.43;51.69;101543.16;5117473;27;20504;-62
2022/05/19 03:24:47;;;;;;;16.35;13.15;;;;;;;23.45;51.63;101544.69;5135568;27;20408;-63
2022/05/19 03:27:14;;;;;;;14.57;12.45;;;;;;;23.46;51.59;101546.41;5135132;27;20039;-63
2022/05/19 03:29:40;;;;;;;15.63;12.63;;;;;;;23.50;51.81;101557.88;5134970;27;20054;-64
2022/05/19 03:32:07;;;;;;;18.15;14.25;;;;;;;23.54;51.56;101574.84;5135237;27;20047;-63
2022/05/19 03:34:34;;;;;;;18.20;12.68;;;;;;;23.55;51.44;101676.13;5135060;27;20382;-63
2022/05/19 03:37:03;;;;;;;17.30;13.93;;;;;;;23.50;51.57;101658.47;5134852;27;20071;-62
2022/05/19 03:39:30;;;;;;;17.33;12.68;;;;;;;23.39;51.62;101633.13;5135162;27;20046;-63
2022/05/19 03:41:58;;;;;;;15.00;10.93;;;;;;;23.35;51.50;101672.88;5135410;27;20050;-62
2022/05/19 03:44:25;;;;;;;13.63;11.40;;;;;;;23.37;51.73;101695.47;5134879;27;20054;-63
2022/05/19 03:46:51;;;;;;;16.48;12.90;;;;;;;23.42;51.34;101686.75;5134609;27;20382;-62
2022/05/19 03:49:19;;;;;;;14.85;13.07;;;;;;;23.46;51.71;101667.03;5134946;27;20396;-62
2022/05/19 03:51:46;;;;;;;15.90;12.05;;;;;;;23.54;51.81;101679.03;5134780;27;20042;-63
2022/05/19 03:54:12;;;;;;;19.08;13.23;;;;;;;23.61;51.33;101688.28;5134743;27;20050;-63
2022/05/19 03:56:39;;;;;;;17.00;13.02;;;;;;;23.66;51.53;101688.63;5134783;27;20053;-63
2022/05/19 03:59:06;;;;;;;17.80;13.65;;;;;;;23.68;51.49;101679.19;5134914;27;20485;-63
2022/05/19 04:01:32;;;;;;;17.05;13.68;;;;;;;23.71;51.19;101689.81;5134834;27;20042;-63
2022/05/19 04:03:59;;;;;;;17.92;13.23;;;;;;;23.78;51.09;101681.75;5134572;27;20051;-64
2022/05/19 04:06:34;;;;;;;16.35;12.38;;;;;;;23.84;51.46;101678.34;5134285;27;20117;-62
2022/05/19 04:09:05;;;;;;;15.68;12.93;;;;;;;23.88;51.25;101685.19;5134402;27;20039;-64
2022/05/19 04:11:32;;;;;;;17.50;12.85;;;;;;;23.94;51.30;101698.19;5134166;27;20042;-64
2022/05/19 04:13:59;;;;;;;16.10;12.90;;;;;;;23.98;51.29;101688.59;5134694;27;20039;-63
2022/05/19 04:16:25;;;;;;;17.23;13.20;;;;;;;23.99;51.20;101695.78;5134630;27;20043;-63
2022/05/19 04:18:52;;;;;;;21.40;15.35;;;;;;;24.01;51.26;101698.34;5133722;27;20576;-62
2022/05/19 04:21:20;;;;;;;19.65;15.25;;;;;;;24.01;51.16;101696.47;5134473;27;20050;-62
2022/05/19 04:23:47;;;;;;;16.05;13.25;;;;;;;24.04;51.21;101698.00;5134242;27;20504;-63
2022/05/19 04:26:13;;;;;;;18.38;15.38;;;;;;;24.08;51.16;101682.88;5134521;27;20047;-63
2022/05/19 04:28:40;;;;;;;17.92;15.30;;;;;;;24.06;51.29;101672.09;5133966;27;20043;-62
2022/05/19 04:31:06;;;;;;;15.68;14.07;;;;;;;24.04;51.25;101685.13;5115867;27;20051;-63
2022/05/19 04:33:33;;;;;;;18.73;14.48;;;;;;;24.02;51.45;101673.47;5134101;27;20400;-62
2022/05/19 04:36:02;;;;;;;20.05;15.52;;;;;;;24.00;51.77;101659.09;5134590;27;20047;-63
2022/05/19 04:38:29;;;;;;;18.55;14.98;;;;;;;23.99;51.61;101690.28;5112220;28;20092;-63
2022/05/19 04:41:01;;;;;;;20.67;17.13;;;;;;;23.99;51.72;101679.31;5113843;28;20504;-64
2022/05/19 04:43:28;;;;;;;21.63;17.17;;;;;;;24.00;51.94;101683.78;5113592;28;20048;-64
2022/05/19 04:45:56;;;;;;;21.38;17.17;;;;;;;24.02;51.53;101691.84;5123996;27;20039;-62
2022/05/19 04:48:24;;;;;;;19.33;16.17;;;;;;;24.06;51.87;101690.44;5141149;27;20071;-63
2022/05/19 04:50:58;;;;;;;21.60;17.17;;;;;;;24.09;51.82;101679.13;5141061;27;20125;-64
2022/05/19 04:53:26;;;;;;;20.25;17.20;;;;;;;24.14;52.16;101678.59;5122482;27;20468;-63
2022/05/19 04:55:53;;;;;;;22.35;16.95;;;;;;;24.17;51.94;101678.22;5141083;27;20039;-63
2022/05/19 04:58:21;;;;;;;16.77;14.98;;;;;;;24.16;52.14;101660.06;5140537;27;20050;-63
2022/05/19 05:00:49;;;;;;;22.17;16.08;;;;;;;24.16;52.23;101663.66;5141025;27;20438;-62
2022/05/19 05:03:16;;;;;;;20.45;16.48;;;;;;;24.18;52.26;101672.56;5141977;27;20031;-63
2022/05/19 05:05:43;;;;;;;22.10;17.70;;;;;;;24.22;52.39;101684.03;5140240;27;20557;-63
2022/05/19 05:08:09;;;;;;;20.98;16.02;;;;;;;24.26;52.59;101686.25;5140731;27;20043;-63
2022/05/19 05:10:36;;;;;;;18.67;16.55;;;;;;;24.31;52.40;101677.50;5122322;27;20043;-63
2022/05/19 05:13:07;;;;;;;19.08;17.02;;;;;;;24.30;52.78;101681.28;5140781;27;20039;-63
2022/05/19 05:15:34;;;;;;;20.15;16.52;;;;;;;24.30;52.70;101682.16;5140664;27;20035;-64
2022/05/19 05:18:01;;;;;;;17.25;15.43;;;;;;;24.31;52.49;101669.28;5140554;27;20043;-62
2022/05/19 05:20:27;;;;;;;19.02;16.20;;;;;;;24.28;52.75;101670.50;5140745;27;20035;-64
2022/05/19 05:22:54;;;;;;;19.20;16.08;;;;;;;24.30;52.64;101664.81;5140780;27;20043;-64
2022/05/19 05:25:21;;;;;;;18.75;15.52;;;;;;;24.32;52.84;101668.25;5140114;27;20500;-64
2022/05/19 05:27:48;;;;;;;19.25;15.48;;;;;;;24.35;52.90;101673.38;5140480;27;20039;-63
2022/05/19 05:30:15;;;;;;;17.42;14.73;;;;;;;24.40;53.01;101680.03;5140681;27;20134;-64
2022/05/19 05:32:41;;;;;;;18.92;15.05;;;;;;;24.45;52.86;101681.38;5140878;27;20062;-63
2022/05/19 05:35:09;;;;;;;16.90;14.65;;;;;;;24.49;52.86;101680.00;5140330;27;20109;-63
2022/05/19 05:37:36;;;;;;;20.35;15.60;;;;;;;24.51;52.89;101672.44;5140488;27;20035;-63
2022/05/19 05:40:07;;;;;;;16.52;14.05;;;;;;;24.50;52.71;101676.22;5140512;27;20057;-63
2022/05/19 05:42:34;;;;;;;14.95;13.45;;;;;;;24.49;52.85;101664.38;5122442;27;20041;-63
2022/05/19 05:45:03;;;;;;;18.38;14.45;;;;;;;24.49;53.02;101656.13;5140554;27;20053;-63
2022/05/19 05:47:30;;;;;;;14.40;12.65;;;;;;;24.49;53.00;101652.53;5118519;28;20055;-62
2022/05/19 05:50:04;;;;;;;14.18;11.65;;;;;;;24.52;52.96;101649.44;5119917;27;20039;-63
2022/05/19 05:52:30;;;;;;;16.02;11.80;;;;;;;24.53;52.96;101652.03;5119821;27;20050;-63
2022/05/19 05:54:59;;;;;;;14.13;10.15;;;;;;;24.55;52.80;101638.13;5119994;28;20055;-63
2022/05/19 05:57:29;;;;;;;12.80;9.90;;;;;;;24.57;52.54;101642.38;5126510;27;20089;-64
2022/05/19 05:59:56;;;;;;;9.82;8.73;;;;;;;24.61;52.57;101634.63;5137028;27;20411;-64
2022/05/19 06:02:22;;;;;;;10.63;8.18;;;;;;;24.61;52.53;101646.47;5137156;27;20040;-64
2022/05/19 06:04:49;;;;;;;8.07;6.75;;;;;;;24.63;52.47;101654.53;5137022;27;20062;-64
2022/05/19 06:07:16;;;;;;;6.93;5.53;;;;;;;24.62;52.08;101661.91;5136738;27;20043;-64
2022/05/19 06:09:43;;;;;;;7.28;5.75;;;;;;;24.62;52.02;101655.56;5116417;28;20040;-64
2022/05/19 06:12:10;;;;;;;8.65;6.65;;;;;;;24.64;51.85;101642.50;5116490;28;20050;-65
2022/05/19 06:14:36;;;;;;;7.68;6.05;;;;;;;24.62;52.13;101653.69;5119471;27;20035;-64
2022/05/19 06:17:04;;;;;;;11.18;6.93;;;;;;;24.59;52.28;101615.59;5136803;27;20507;-64
2022/05/19 06:19:30;;;;;;;10.10;6.47;;;;;;;24.53;51.99;101577.88;5136574;27;20438;-64
2022/05/19 06:21:57;;;;;;;11.30;6.60;;;;;;;24.45;52.60;101524.88;5136959;27;20035;-64
2022/05/19 06:24:23;;;;;;;9.13;6.90;;;;;;;24.34;52.61;101495.97;5136922;27;20046;-64
2022/05/19 06:26:50;;;;;;;11.15;6.60;;;;;;;24.26;52.74;101496.00;5136731;27;20043;-64
2022/05/19 06:29:16;;;;;;;9.20;7.13;;;;;;;24.18;52.78;101504.28;5136654;27;20570;-64
2022/05/19 06:31:43;;;;;;;10.95;6.38;;;;;;;24.11;53.02;101539.81;5136511;27;20047;-65
2022/05/19 06:34:10;;;;;;;7.53;6.70;;;;;;;24.08;52.84;101573.97;5136347;27;20130;-64
2022/05/19 06:36:42;;;;;;;9.20;6.53;;;;;;;24.11;53.09;101581.00;5136463;27;20051;-63
2022/05/19 06:39:09;;;;;;;8.98;6.97;;;;;;;24.14;53.28;101605.34;5136329;27;20047;-63
2022/05/19 06:44:21;;;;;;;10.23;7.25;;;;;;;24.21;53.68;101617.31;5136302;27;20039;-65
2022/05/19 06:46:47;;;;;;;10.23;7.60;;;;;;;24.22;54.06;101601.69;5136223;27;20047;-64
2022/05/19 06:49:14;;;;;;;9.32;7.78;;;;;;;24.21;53.90;101594.50;5136208;27;20114;-63
2022/05/19 06:51:40;;;;;;;8.55;7.43;;;;;;;24.20;54.25;101588.16;5136312;27;20047;-64
2022/05/19 06:54:07;;;;;;;11.57;8.25;;;;;;;24.17;54.00;101538.25;5136008;27;20050;-65
2022/05/19 06:56:35;;;;;;;13.85;9.23;;;;;;;24.11;54.42;101534.34;5136045;27;20043;-63
2022/05/19 06:59:03;;;;;;;13.68;9.93;;;;;;;24.00;55.06;101549.31;5136464;27;20047;-64
2022/05/19 07:01:30;;;;;;;9.60;8.68;;;;;;;23.93;55.06;101567.53;5136473;27;20058;-64
2022/05/19 07:03:57;;;;;;;13.25;9.77;;;;;;;23.87;55.22;101581.13;5135925;27;20481;-64
2022/05/19 07:06:24;;;;;;;11.38;10.02;;;;;;;23.82;55.25;101578.91;5135816;27;20515;-64
2022/05/19 07:08:51;;;;;;;14.43;10.35;;;;;;;23.79;55.38;101590.22;5135912;27;20046;-63
2022/05/19 07:11:27;;;;;;;14.75;11.75;;;;;;;23.82;55.73;101584.38;5135883;27;20493;-63
2022/05/19 07:14:01;;;;;;;12.88;10.65;;;;;;;23.84;55.76;101565.00;5135754;27;20431;-63
2022/05/19 07:16:29;;;;;;;11.85;10.27;;;;;;;23.83;55.81;101577.00;5135990;27;20134;-63
2022/05/19 07:20:43;;;;;;;13.13;10.30;;;;;;;23.83;55.95;101577.00;5135684;27;20041;-63
2022/05/19 07:21:45;;;;;;;11.15;10.07;;;;;;;23.87;56.34;101584.72;5135636;27;20106;-64
2022/05/19 07:24:16;;;;;;;11.65;9.80;;;;;;;23.93;56.29;101585.88;5135423;27;20043;-63
2022/05/19 07:26:45;;;;;;;12.07;10.48;;;;;;;23.99;56.33;101555.00;5135574;27;20404;-64
2022/05/19 07:29:12;;;;;;;13.65;11.27;;;;;;;24.04;56.31;101561.66;5117098;27;20087;-63
2022/05/19 07:31:38;;;;;;;11.98;10.57;;;;;;;24.08;56.35;101556.66;5135333;27;20489;-63
2022/05/19 07:34:08;;;;;;;14.60;11.68;;;;;;;24.09;56.63;101548.25;5135196;27;20035;-63
2022/05/19 07:36:35;;;;;;;14.48;10.95;;;;;;;24.09;56.83;101536.41;5135215;27;20044;-62
2022/05/19 07:39:02;;;;;;;13.10;11.73;;;;;;;24.07;56.87;101522.03;5117052;27;20043;-63
2022/05/19 07:41:30;;;;;;;13.05;11.63;;;;;;;24.06;57.45;101523.06;5135336;27;20397;-63
2022/05/19 07:44:00;;;;;;;14.05;12.57;;;;;;;24.07;57.55;101509.16;5135074;27;20405;-62
2022/05/19 07:46:28;;;;;;;13.95;12.50;;;;;;;24.10;57.72;101524.41;5135103;27;20409;-63
2022/05/19 07:48:56;;;;;;;13.13;11.82;;;;;;;24.13;57.83;101514.94;5134964;27;20118;-63
2022/05/19 07:51:31;;;;;;;12.80;10.80;;;;;;;24.18;57.80;101537.22;5135246;27;20058;-63
2022/05/19 07:53:58;;;;;;;11.85;10.52;;;;;;;24.23;57.90;101564.97;5135132;27;20040;-62
2022/05/19 07:56:24;;;;;;;12.45;9.55;;;;;;;24.27;57.67;101564.47;5134884;27;20043;-62
2022/05/19 07:58:51;;;;;;;12.23;9.63;;;;;;;24.31;57.50;101579.53;5135271;27;20049;-63
2022/05/19 08:01:18;;;;;;;11.65;10.55;;;;;;;24.36;57.83;101582.59;5134788;27;20130;-64
2022/05/19 08:03:45;;;;;;;16.48;11.65;;;;;;;24.46;57.61;101579.63;5134653;27;20126;-63
2022/05/19 08:06:12;;;;;;;11.98;10.77;;;;;;;24.54;57.76;101571.34;5135780;27;20423;-63
2022/05/19 08:08:40;;;;;;;11.90;9.82;;;;;;;24.63;57.30;101572.13;5136749;27;20039;-63
2022/05/19 08:11:07;;;;;;;12.98;9.77;;;;;;;24.71;57.37;101567.44;5135344;27;20046;-61
2022/05/19 08:16:19;;;;;;;;;;;;;;;24.90;57.13;101562.47;5134737;27;20099;-61
2022/05/19 08:18:46;;;;;;;12.77;9.80;;;;;;;25.01;57.01;101548.31;5134748;27;19962;-61
2022/05/19 08:21:13;;;;;;;12.68;11.10;;;;;;;25.11;57.28;101546.16;5133849;27;20050;-61
2022/05/19 08:23:43;;;;;;;11.50;10.35;;;;;;;25.22;57.17;101545.69;5134302;27;20485;-61
2022/05/19 08:26:10;;;;;;;10.70;7.85;;;;;;;25.34;57.03;101537.88;5134715;27;20043;-59
2022/05/19 08:28:44;;;;;;;13.05;8.73;;;;;;;25.49;57.06;101537.88;5135110;27;20447;-60
2022/05/19 08:31:17;;;;;;;9.63;8.63;;;;;;;25.63;56.63;101526.00;5134284;27;20043;-60
2022/05/19 08:33:45;;;;;;;11.00;8.45;;;;;;;25.80;56.60;101522.03;5133734;27;20059;-60
2022/05/19 08:36:17;;;;;;;12.25;7.80;;;;;;;26.02;56.15;101520.22;5134434;27;20062;-59
2022/05/19 08:38:44;;;;;;;11.32;7.80;;;;;;;26.23;55.96;101533.16;5134192;27;20134;-60
2022/05/19 08:41:25;;;;;;;9.43;6.63;;;;;;;26.46;55.60;101539.34;5134143;27;20126;-60
2022/05/19 08:44:11;;;;;;;10.32;7.70;;;;;;;26.72;54.90;101546.16;5134378;27;20047;-61
2022/05/19 08:46:45;;;;;;;7.97;6.82;;;;;;;26.97;54.39;101547.47;5134324;28;20062;-60
2022/05/19 08:49:23;;;;;;;9.98;7.43;;;;;;;27.21;54.04;101544.31;5134229;28;20051;-60
2022/05/19 08:52:12;;;;;;;8.10;6.10;;;;;;;27.44;53.07;101544.03;5134418;28;20050;-60
2022/05/19 08:54:43;;;;;;;9.90;6.30;;;;;;;27.61;52.37;101547.38;5134044;28;20046;-60
2022/05/19 08:57:24;;;;;;;7.65;6.15;;;;;;;27.75;51.68;101548.28;5134300;28;20043;-60
2022/05/19 09:00:19;;;;;;;7.85;5.50;;;;;;;27.92;50.93;101548.78;5133263;28;20100;-62
2022/05/19 09:03:23;;;;;;;6.90;6.20;;;;;;;28.11;50.57;101536.97;5134177;28;20042;-62
2022/05/19 09:05:56;;;;;;;6.70;5.82;;;;;;;28.28;50.10;101545.78;5134092;28;20515;-62
2022/05/19 09:08:40;;;;;;;8.68;5.28;;;;;;;28.43;49.63;101529.88;5115288;28;20397;-61
2022/05/19 09:11:07;;;;;;;6.32;5.18;;;;;;;28.58;49.09;101527.78;5115318;28;20086;-61
2022/05/19 09:13:52;;;;;;;7.05;4.10;;;;;;;28.74;48.58;101524.59;5133721;28;20047;-60
2022/05/19 09:16:23;;;;;;;5.80;4.43;;;;;;;28.92;48.24;101523.16;5132598;28;20035;-60
2022/05/19 09:19:19;;;;;;;7.10;4.38;;;;;;;29.07;48.04;101516.34;5134483;28;20455;-60
2022/05/19 09:21:56;;;;;;;5.78;4.22;;;;;;;29.31;47.16;101505.66;5130306;28;20058;-60
2022/05/19 09:24:22;;;;;;;7.00;4.15;;;;;;;29.49;47.24;101505.88;5133267;28;20043;-60
2022/05/19 09:26:54;;;;;;;6.30;4.18;;;;;;;29.64;46.43;101511.97;5133863;28;20047;-61
2022/05/19 09:29:44;;;;;;;8.07;4.47;;;;;;;29.75;45.87;101516.03;5134349;28;20557;-60
2022/05/19 09:32:26;;;;;;;7.70;4.40;;;;;;;29.84;45.46;101508.31;5135023;27;20044;-61
2022/05/19 09:35:13;;;;;;;6.82;5.03;;;;;;;29.86;44.83;101500.63;5137633;27;20047;-60
2022/05/19 09:37:49;;;;;;;7.10;4.45;;;;;;;29.89;44.18;101495.50;5137966;27;20045;-60
2022/05/19 09:40:28;;;;;;;5.47;3.97;;;;;;;29.95;44.39;101496.53;5137558;27;20049;-61
2022/05/19 09:43:29;;;;;;;6.78;4.10;;;;;;;30.00;43.95;101500.34;5137582;27;20126;-61
2022/05/19 09:46:13;;;;;;;5.55;4.40;;;;;;;30.02;43.53;101501.00;5137373;27;20081;-62
2022/05/19 09:48:49;;;;;;;6.30;3.80;;;;;;;30.08;43.60;101501.19;5137497;27;20045;-62
2022/05/19 09:51:19;;;;;;;4.15;3.75;;;;;;;30.19;43.43;101500.47;5137098;27;20050;-62
2022/05/19 09:53:49;;;;;;;8.50;4.30;;;;;;;30.33;43.02;101493.78;5135922;27;20485;-62
2022/05/19 09:56:20;;;;;;;6.47;3.75;;;;;;;30.43;43.21;101488.59;5136762;27;20057;-62
2022/05/19 09:58:50;;;;;;;4.00;3.60;;;;;;;30.54;42.74;101490.66;5115200;27;20046;-62
2022/05/19 10:01:27;;;;;;;7.15;4.10;;;;;;;30.64;42.05;101495.75;5137159;27;20426;-62
2022/05/19 10:03:58;;;;;;;6.68;3.70;;;;;;;30.74;42.15;101490.53;5135859;27;20050;-62
2022/05/19 10:06:36;;;;;;;6.38;3.67;;;;;;;30.83;42.06;101491.09;5136760;27;20039;-62
2022/05/19 10:09:13;;;;;;;7.95;3.92;;;;;;;30.88;41.45;101483.78;5136454;27;20541;-62
2022/05/19 10:11:52;;;;;;;8.18;3.90;;;;;;;30.93;41.21;101475.63;5135597;27;20051;-62
2022/05/19 10:14:26;;;;;;;7.68;3.42;;;;;;;30.98;41.13;101478.56;5136850;27;20515;-62
2022/05/19 10:17:10;;;;;;;9.52;3.80;;;;;;;31.04;40.73;101474.03;5136318;27;20031;-62
2022/05/19 10:20:17;;;;;;;6.43;4.13;;;;;;;31.10;40.53;101459.25;5136767;27;20096;-62
2022/05/19 10:23:14;;;;;;;;;;;;;;;31.21;41.03;101447.44;5100869;27;20078;-61
2022/05/19 10:25:55;;;;;;;5.75;3.78;;;;;;;31.35;40.45;101433.41;5136785;27;20395;-62
2022/05/19 10:31:44;;;;;;;6.10;3.22;;;;;;;31.48;39.89;101420.22;5137008;27;20459;-62
2022/05/19 10:34:30;;;;;;;5.55;3.67;;;;;;;31.57;40.14;101416.03;5136055;27;20150;-61
2022/05/19 10:37:24;;;;;;;4.15;3.33;;;;;;;31.70;39.34;101417.81;5136924;27;20053;-62
2022/05/19 10:40:13;;;;;;;7.13;3.20;;;;;;;31.78;39.31;101413.88;5136459;27;20548;-61
2022/05/19 10:42:45;;;;;;;4.00;3.42;;;;;;;31.83;38.88;101411.22;5136066;27;20489;-62
2022/05/19 10:45:17;;;;;;;3.88;3.03;;;;;;;31.91;38.80;101408.13;5135609;27;20051;-63
2022/05/19 10:47:54;;;;;;;5.88;3.22;;;;;;;31.96;38.62;101416.63;5136397;27;20050;-61
2022/05/19 10:50:30;;;;;;;7.10;3.28;;;;;;;32.03;38.32;101413.75;5136419;27;20436;-62
2022/05/19 10:53:09;;;;;;;5.70;3.58;;;;;;;32.07;37.74;101424.16;5136247;27;20134;-62
2022/05/19 10:55:53;;;;;;;7.72;3.40;;;;;;;32.11;37.80;101428.16;5137189;27;20051;-63
2022/05/19 10:58:23;;;;;;;3.40;3.03;;;;;;;32.15;37.76;101429.38;5136194;27;20054;-62
2022/05/19 11:01:14;;;;;;;5.75;3.60;;;;;;;32.19;37.82;101443.63;5135963;27;20043;-62
2022/05/19 11:03:41;;;;;;;7.45;3.30;;;;;;;32.23;37.90;101428.16;5135894;27;20378;-62
2022/05/19 11:06:13;;;;;;;6.07;3.40;;;;;;;32.23;37.49;101415.13;5135970;27;20045;-63
2022/05/19 11:09:01;;;;;;;4.38;3.75;;;;;;;32.26;37.20;101413.81;5135801;27;20049;-61
2022/05/19 11:11:39;;;;;;;4.82;3.55;;;;;;;32.27;36.95;101403.56;5135443;27;20035;-62
2022/05/19 11:14:35;;;;;;;7.00;3.55;;;;;;;32.27;37.07;101409.13;5135866;27;20050;-62
2022/05/19 11:17:35;;;;;;;6.50;3.10;;;;;;;32.27;36.80;101400.78;5136206;27;20039;-62
2022/05/19 11:20:11;;;;;;;7.72;3.55;;;;;;;32.25;36.88;101405.72;5135813;27;20038;-62
2022/05/19 11:22:39;;;;;;;5.47;3.50;;;;;;;32.22;36.81;101396.75;5136847;27;20046;-62
2022/05/19 11:28:24;;;;;;;4.97;3.20;;;;;;;32.10;37.10;101383.91;5135609;27;20088;-61
2022/05/19 11:30:58;;;;;;;6.45;3.80;;;;;;;32.06;36.93;101397.44;5135505;27;20049;-62
2022/05/19 11:33:33;;;;;;;5.07;3.10;;;;;;;31.99;37.20;101393.06;5117354;27;20043;-61
2022/05/19 11:36:10;;;;;;;7.50;3.25;;;;;;;31.91;37.10;101395.06;5135460;27;20054;-63
2022/05/19 11:39:02;;;;;;;6.72;3.88;;;;;;;31.82;36.87;101402.06;5135160;27;20386;-62
2022/05/19 11:41:36;;;;;;;5.88;3.25;;;;;;;31.80;36.90;101403.38;5135378;27;20122;-62
2022/05/19 11:44:18;;;;;;;7.35;3.45;;;;;;;31.72;36.94;101396.22;5135139;27;20396;-62
2022/05/19 11:47:00;;;;;;;7.38;3.35;;;;;;;31.63;36.75;101397.59;5135441;27;20039;-61
2022/05/19 11:55:21;;;;;;;5.55;3.85;;;;;;;31.42;37.63;101376.72;5133943;27;20039;-61